Time;durP1;ratioP1;P1;durP2;ratioP2;P2;SDS_P1;SDS_P2;PMS_P1;PMS_P2;Temp;Humidity;BMP_temperature;BMP_pressure;BME280_temperature;BME280_humidity;BME280_pressure;Samples;Min_cycle;Max_cycle;Signal;HPM_P1;HPM_P2
2023/05/21 00:01:44;;;;;;;;;;;15.90;61.80;;;11.66;100.00;95076.22;5012495;28;20379;-52
2023/05/21 00:04:11;;;;;;;;;;;15.90;61.90;;;11.62;100.00;95069.84;5013033;28;19916;-49
2023/05/21 00:06:37;;;;;;;;;;;15.90;61.90;;;11.55;100.00;95072.84;5011940;28;19909;-52
2023/05/21 00:09:04;;;;;;;;;;;15.90;61.90;;;11.54;100.00;95070.50;5002627;28;19910;-53
2023/05/21 00:11:31;;;;;;;;;;;15.90;62.00;;;11.57;100.00;95067.25;5013120;28;19909;-49
2023/05/21 00:13:57;;;;;;;;;;;15.90;62.00;;;11.58;100.00;95061.63;5002426;28;20008;-49
2023/05/21 00:16:24;;;;;;;;;;;15.80;62.00;;;11.55;100.00;95058.72;5012506;28;19999;-50
2023/05/21 00:18:53;;;;;;;;;;;15.80;62.10;;;11.56;100.00;95050.47;5012017;28;19917;-51
2023/05/21 00:21:24;;;;;;;;;;;15.80;62.10;;;11.54;100.00;95049.16;5013009;28;19952;-51
2023/05/21 00:23:55;;;;;;;;;;;15.80;62.20;;;11.51;100.00;95047.84;5013156;28;19909;-50
2023/05/21 00:26:21;;;;;;;;;;;15.80;62.30;;;11.50;100.00;95056.09;5017731;28;19975;-49
2023/05/21 00:28:47;;;;;;;;;;;15.80;62.40;;;11.51;100.00;95052.38;5013013;28;19916;-50
2023/05/21 00:31:12;;;;;;;;;;;15.80;62.40;;;11.50;100.00;95054.25;5011064;28;20280;-52
2023/05/21 00:33:38;;;;;;;;;;;15.80;62.50;;;11.50;100.00;95048.09;5012482;28;20336;-49
2023/05/21 00:36:04;;;;;;;;;;;15.80;62.60;;;11.51;100.00;95041.72;5012719;28;20348;-51
2023/05/21 00:38:31;;;;;;;;;;;15.80;62.70;;;11.52;100.00;95044.09;5011805;28;19909;-52
2023/05/21 00:41:02;;;;;;;;;;;15.80;62.70;;;11.54;100.00;95041.16;5012731;28;20264;-51
2023/05/21 00:43:28;;;;;;;;;;;15.80;62.80;;;11.54;100.00;95041.94;5011568;28;19916;-50
2023/05/21 00:45:55;;;;;;;;;;;15.80;62.80;;;11.56;100.00;95039.78;5012641;28;19912;-50
2023/05/21 00:48:23;;;;;;;;;;;15.80;62.80;;;11.58;100.00;95042.16;5027765;28;19956;-50
2023/05/21 00:50:49;;;;;;;;;;;15.80;62.80;;;11.61;100.00;95043.47;5026622;28;19999;-50
2023/05/21 00:53:18;;;;;;;;;;;15.80;62.90;;;11.61;100.00;95038.94;5012598;28;19909;-48
2023/05/21 00:55:45;;;;;;;;;;;15.80;62.90;;;11.61;100.00;95044.25;5026480;28;19978;-49
2023/05/21 00:58:11;;;;;;;;;;;15.80;63.60;;;11.58;100.00;95036.81;5012959;28;19932;-52
2023/05/21 01:00:39;;;;;;;;;;;15.90;62.90;;;11.56;100.00;95039.78;5010304;28;19913;-51
2023/05/21 01:03:05;;;;;;;;;;;15.90;62.90;;;11.55;100.00;95040.06;5010888;28;20004;-51
2023/05/21 01:05:31;;;;;;;;;;;15.90;62.80;;;11.54;100.00;95043.81;5012751;28;20284;-48
2023/05/21 01:07:58;;;;;;;;;;;15.90;62.90;;;11.52;100.00;95040.63;5002286;28;19916;-48
2023/05/21 01:10:26;;;;;;;;;;;15.80;62.80;;;11.53;100.00;95042.22;5003769;28;19955;-49
2023/05/21 01:12:56;;;;;;;;;;;15.90;62.90;;;11.51;100.00;95045.16;5026376;28;19920;-50
2023/05/21 01:15:22;;;;;;;;;;;15.80;62.90;;;11.44;100.00;95041.22;5012296;28;19958;-48
2023/05/21 01:17:50;;;;;;;;;;;15.90;63.00;;;11.46;100.00;95041.75;5027580;28;19909;-51
2023/05/21 01:20:18;;;;;;;;;;;15.80;62.90;;;11.45;100.00;95040.19;5010851;28;19935;-48
2023/05/21 01:22:55;;;;;;;;;;;15.80;63.00;;;11.46;100.00;95044.41;4995848;28;19917;-48
2023/05/21 01:25:22;;;;;;;;;;;15.80;63.00;;;11.34;100.00;95040.28;5011075;28;19920;-50
2023/05/21 01:27:50;;;;;;;;;;;15.80;63.10;;;11.37;100.00;95038.91;5012133;28;19958;-54
2023/05/21 01:30:18;;;;;;;;;;;15.80;63.10;;;11.41;100.00;95036.50;5012466;28;19954;-49
2023/05/21 01:33:02;;;;;;;;;;;15.80;63.10;;;11.42;100.00;95038.06;5017762;28;19955;-48
2023/05/21 01:35:46;;;;;;;;;;;15.70;63.20;;;11.43;100.00;95031.66;5011809;28;19971;-48
2023/05/21 01:38:32;;;;;;;;;;;15.70;63.20;;;11.41;100.00;95039.16;5016173;28;20421;-48
2023/05/21 01:41:05;;;;;;;;;;;15.70;63.30;;;11.42;100.00;95038.88;5011570;28;19917;-53
2023/05/21 01:43:37;;;;;;;;;;;15.70;63.40;;;11.35;100.00;95038.41;5008116;28;19909;-50
2023/05/21 01:46:07;;;;;;;;;;;15.80;63.50;;;11.41;100.00;95037.28;5014589;28;19909;-48
2023/05/21 01:48:34;;;;;;;;;;;15.70;63.40;;;11.43;100.00;95037.78;5014452;28;19999;-49
2023/05/21 01:51:04;;;;;;;;;;;15.70;63.50;;;11.46;100.00;95028.41;5013855;28;19909;-49
2023/05/21 01:53:30;;;;;;;;;;;15.70;63.50;;;11.47;100.00;95025.50;5014451;28;19909;-53
2023/05/21 01:55:58;;;;;;;;;;;15.70;63.60;;;11.48;100.00;95019.06;5014801;28;19909;-49
2023/05/21 01:58:24;;;;;;;;;;;15.70;63.60;;;11.51;100.00;95020.38;5015461;28;19940;-49
2023/05/21 02:00:50;;;;;;;;;;;15.80;63.70;;;11.52;100.00;95013.94;5015400;28;19913;-49
2023/05/21 02:03:19;;;;;;;;;;;15.80;63.80;;;11.52;100.00;95019.28;5016086;28;19917;-51
2023/05/21 02:05:45;;;;;;;;;;;15.80;63.80;;;11.52;100.00;95013.94;5015467;28;19915;-53
2023/05/21 02:08:14;;;;;;;;;;;15.70;63.70;;;11.54;100.00;95006.47;5009627;28;19916;-49
2023/05/21 02:10:40;;;;;;;;;;;15.80;63.80;;;11.51;100.00;95004.38;5014883;28;19939;-52
2023/05/21 02:13:06;;;;;;;;;;;15.80;63.80;;;11.47;100.00;95006.00;5014315;28;19909;-52
2023/05/21 02:15:33;;;;;;;;;;;15.80;63.90;;;11.43;100.00;94997.78;5015299;28;19909;-53
2023/05/21 02:17:59;;;;;;;;;;;15.80;64.00;;;11.46;100.00;94999.09;5015365;28;19970;-51
2023/05/21 02:20:25;;;;;;;;;;;15.80;64.00;;;11.50;100.00;95006.25;5013288;28;19913;-54
2023/05/21 02:22:50;;;;;;;;;;;15.80;64.10;;;11.46;100.00;94997.22;5014885;28;19924;-52
2023/05/21 02:25:20;;;;;;;;;;;15.80;64.10;;;11.47;100.00;94996.16;5014186;28;19940;-53
2023/05/21 02:27:46;;;;;;;;;;;15.80;64.30;;;11.49;100.00;95001.97;5015866;28;19909;-51
2023/05/21 02:30:15;;;;;;;;;;;15.80;64.30;;;11.56;100.00;95002.44;5014825;28;20359;-50
2023/05/21 02:32:41;;;;;;;;;;;15.80;64.30;;;11.68;100.00;95006.56;5014159;28;20356;-50
2023/05/21 02:35:10;;;;;;;;;;;15.80;64.40;;;11.66;100.00;95004.19;5014897;28;20314;-49
2023/05/21 02:37:36;;;;;;;;;;;15.80;64.40;;;11.62;100.00;94999.72;5014243;28;19953;-48
2023/05/21 02:40:04;;;;;;;;;;;15.80;64.30;;;11.63;100.00;95009.31;5014841;28;19913;-50
2023/05/21 02:42:31;;;;;;;;;;;15.80;64.30;;;11.65;100.00;95007.13;5014365;28;19920;-51
2023/05/21 02:44:57;;;;;;;;;;;15.80;64.30;;;11.61;100.00;95006.13;5014373;28;19916;-50
2023/05/21 02:47:23;;;;;;;;;;;15.80;64.30;;;11.61;100.00;95006.13;5014747;28;19909;-50
2023/05/21 02:49:51;;;;;;;;;;;15.80;64.30;;;11.59;100.00;95011.72;5014131;28;20383;-52
2023/05/21 02:52:20;;;;;;;;;;;15.80;64.30;;;11.54;100.00;95004.59;5013359;28;19952;-52
2023/05/21 02:54:46;;;;;;;;;;;15.80;64.30;;;11.53;100.00;94999.53;5014182;28;20007;-49
2023/05/21 02:57:12;;;;;;;;;;;15.80;64.30;;;11.48;100.00;94997.72;5023847;28;20043;-51
2023/05/21 02:59:38;;;;;;;;;;;15.80;64.30;;;11.47;100.00;95006.00;5014172;28;19979;-50
2023/05/21 03:02:04;;;;;;;;;;;15.80;64.30;;;11.43;100.00;95000.44;5012996;28;19913;-54
2023/05/21 03:04:31;;;;;;;;;;;15.80;64.30;;;11.43;100.00;95002.31;5014559;28;20032;-50
2023/05/21 03:07:00;;;;;;;;;;;15.70;65.10;;;11.38;100.00;95000.50;5013668;28;20293;-50
2023/05/21 03:09:26;;;;;;;;;;;15.70;64.40;;;11.35;100.00;94995.75;5014146;28;19909;-50
2023/05/21 03:11:52;;;;;;;;;;;15.60;64.30;;;11.31;100.00;95000.03;5014213;28;19916;-49
2023/05/21 03:14:18;;;;;;;;;;;15.60;64.40;;;11.26;100.00;94998.22;5013318;28;19912;-50
2023/05/21 03:16:44;;;;;;;;;;;15.60;64.40;;;11.21;100.00;95000.16;5014174;28;19920;-49
2023/05/21 03:19:11;;;;;;;;;;;15.50;64.40;;;11.11;100.00;94999.19;5017199;28;19909;-49
2023/05/21 03:21:37;;;;;;;;;;;15.50;64.50;;;11.13;100.00;95011.44;5022601;28;19984;-50
2023/05/21 03:24:06;;;;;;;;;;;15.50;64.50;;;11.09;100.00;95006.69;5014114;28;20011;-49
2023/05/21 03:26:32;;;;;;;;;;;15.40;64.50;;;11.10;100.00;94994.94;5013078;28;19909;-52
2023/05/21 03:28:58;;;;;;;;;;;15.40;64.60;;;11.06;100.00;95007.25;5013806;28;19924;-51
2023/05/21 03:31:25;;;;;;;;;;;15.40;64.60;;;11.01;100.00;95001.16;5006404;28;19996;-53
2023/05/21 03:33:51;;;;;;;;;;;15.30;64.50;;;10.87;100.00;95009.00;5012767;28;20264;-51
2023/05/21 03:36:17;;;;;;;;;;;15.30;64.50;;;10.83;100.00;95008.75;5013705;28;20498;-49
2023/05/21 03:38:43;;;;;;;;;;;15.20;64.50;;;10.81;100.00;95010.09;5011596;28;19999;-54
2023/05/21 03:41:10;;;;;;;;;;;15.20;64.50;;;10.77;100.00;95006.41;5013198;28;19913;-50
2023/05/21 03:43:36;;;;;;;;;;;15.10;64.50;;;10.71;100.00;95010.19;5012613;28;19916;-53
2023/05/21 03:46:02;;;;;;;;;;;15.10;64.60;;;10.67;100.00;95011.84;5013244;28;19999;-50
2023/05/21 03:48:28;;;;;;;;;;;15.00;64.60;;;10.63;100.00;95008.94;5013541;28;19909;-50
2023/05/21 03:50:54;;;;;;;;;;;15.00;64.70;;;10.53;100.00;95009.81;5017904;28;19928;-48
2023/05/21 03:53:20;;;;;;;;;;;15.00;64.70;;;10.49;100.00;95018.63;5013566;28;20292;-54
2023/05/21 03:55:53;;;;;;;;;;;14.90;64.80;;;10.47;100.00;95024.22;5012380;28;20352;-49
2023/05/21 03:58:21;;;;;;;;;;;14.90;64.80;;;10.47;100.00;95032.22;5013535;28;19913;-51
2023/05/21 04:00:47;;;;;;;;;;;14.90;64.90;;;10.46;100.00;95027.16;5011923;28;19913;-50
2023/05/21 04:03:15;;;;;;;;;;;14.80;64.90;;;10.42;100.00;95027.72;5012083;28;26674;-52
2023/05/21 04:05:44;;;;;;;;;;;14.80;64.90;;;10.31;100.00;95030.69;5012466;28;19909;-48
2023/05/21 04:08:10;;;;;;;;;;;14.80;64.90;;;10.32;100.00;95027.78;5011900;28;19909;-49
2023/05/21 04:10:36;;;;;;;;;;;14.80;65.00;;;10.31;100.00;95028.03;5012775;28;19944;-51
2023/05/21 04:13:02;;;;;;;;;;;14.80;65.10;;;10.31;100.00;95033.38;5015452;28;20398;-47
2023/05/21 04:15:27;;;;;;;;;;;14.70;65.10;;;10.23;100.00;95032.06;5019614;28;19996;-54
2023/05/21 04:17:53;;;;;;;;;;;14.70;65.10;;;10.29;100.00;95035.53;5013025;28;20368;-52
2023/05/21 04:20:20;;;;;;;;;;;14.70;65.10;;;10.30;100.00;95037.91;5010747;28;19919;-49
2023/05/21 04:22:46;;;;;;;;;;;14.70;65.10;;;10.31;100.00;95042.16;5012501;28;19924;-51
2023/05/21 04:25:12;;;;;;;;;;;14.70;65.10;;;10.34;100.00;95044.28;5012098;28;19913;-55
2023/05/21 04:27:38;;;;;;;;;;;14.80;65.20;;;10.37;100.00;95040.25;5012446;28;19917;-51
2023/05/21 04:30:05;;;;;;;;;;;14.80;65.20;;;10.43;100.00;95041.81;5012494;28;19917;-50
2023/05/21 04:32:32;;;;;;;;;;;14.80;65.30;;;10.44;100.00;95046.09;5011670;28;19956;-51
2023/05/21 04:34:59;;;;;;;;;;;14.90;65.30;;;10.38;100.00;95055.97;5012227;28;19909;-54
2023/05/21 04:37:26;;;;;;;;;;;14.90;65.20;;;10.43;100.00;95049.81;5005102;28;20004;-49
2023/05/21 04:39:54;;;;;;;;;;;15.00;65.30;;;10.53;100.00;95051.59;5009853;28;19927;-53
2023/05/21 04:42:22;;;;;;;;;;;15.00;65.30;;;10.59;100.00;95050.50;5011265;28;19962;-51
2023/05/21 04:44:49;;;;;;;;;;;15.10;65.30;;;10.63;100.00;95048.88;5011419;28;19909;-53
2023/05/21 04:47:17;;;;;;;;;;;15.10;65.30;;;10.69;100.00;95057.63;5012558;28;19909;-48
2023/05/21 04:49:43;;;;;;;;;;;15.20;65.30;;;10.75;100.00;95045.84;5011606;28;19909;-50
2023/05/21 04:52:10;;;;;;;;;;;15.30;65.30;;;10.79;100.00;95053.03;5012144;28;19938;-50
2023/05/21 04:54:37;;;;;;;;;;;15.30;65.20;;;10.87;100.00;95051.63;5011991;28;20041;-52
2023/05/21 04:57:05;;;;;;;;;;;15.40;65.30;;;10.92;100.00;95051.59;5003973;28;19952;-49
2023/05/21 04:59:31;;;;;;;;;;;15.50;65.40;;;10.99;100.00;95057.38;5012835;28;19913;-49
2023/05/21 05:01:57;;;;;;;;;;;15.60;65.20;;;11.06;100.00;95059.72;5021070;28;19909;-51
2023/05/21 05:04:23;;;;;;;;;;;15.70;65.20;;;11.14;100.00;95056.47;5030473;28;19909;-52
2023/05/21 05:06:49;;;;;;;;;;;15.80;65.20;;;11.20;100.00;95062.53;5011186;28;20252;-50
2023/05/21 05:09:15;;;;;;;;;;;15.90;65.20;;;11.31;100.00;95064.03;5011992;28;19909;-53
2023/05/21 05:11:41;;;;;;;;;;;16.00;65.10;;;11.41;100.00;95063.16;5012016;28;19909;-51
2023/05/21 05:14:07;;;;;;;;;;;16.10;65.10;;;11.51;100.00;95063.84;5011102;28;19916;-54
2023/05/21 05:16:34;;;;;;;;;;;16.20;65.10;;;11.60;100.00;95063.22;5011845;28;19932;-51
2023/05/21 05:19:00;;;;;;;;;;;16.30;65.00;;;11.69;100.00;95067.66;5014225;28;19955;-54
2023/05/21 05:21:26;;;;;;;;;;;16.40;65.00;;;11.79;100.00;95070.22;5025916;28;20649;-51
2023/05/21 05:23:52;;;;;;;;;;;16.50;64.90;;;11.88;100.00;95070.41;5018056;28;19913;-53
2023/05/21 05:26:18;;;;;;;;;;;16.70;64.90;;;11.95;100.00;95068.19;5015530;28;19909;-53
2023/05/21 05:28:45;;;;;;;;;;;16.70;64.80;;;12.02;100.00;95073.19;5016026;28;19955;-51
2023/05/21 05:31:10;;;;;;;;;;;16.90;64.70;;;12.07;100.00;95075.78;5014911;28;19909;-50
2023/05/21 05:33:36;;;;;;;;;;;17.00;64.60;;;12.15;100.00;95067.13;5015777;28;20367;-51
2023/05/21 05:36:02;;;;;;;;;;;17.10;64.50;;;12.24;100.00;95072.63;5016010;28;19937;-56
2023/05/21 05:38:28;;;;;;;;;;;17.30;64.40;;;12.30;100.00;95068.81;5006323;28;19955;-51
2023/05/21 05:40:54;;;;;;;;;;;17.40;64.40;;;12.39;100.00;95072.44;5015407;28;19917;-54
2023/05/21 05:43:19;;;;;;;;;;;17.50;65.10;;;12.44;100.00;95082.25;5015192;28;19909;-51
2023/05/21 05:45:45;;;;;;;;;;;17.60;64.30;;;12.56;100.00;95071.13;5015527;28;19916;-52
2023/05/21 05:48:11;;;;;;;;;;;17.80;64.20;;;12.69;100.00;95084.59;5015764;28;20315;-51
2023/05/21 05:50:37;;;;;;;;;;;17.90;64.00;;;12.82;100.00;95068.91;5020222;28;20019;-49
2023/05/21 05:53:03;;;;;;;;;;;18.00;63.90;;;12.99;100.00;95071.81;5015780;28;19947;-49
2023/05/21 05:55:28;;;;;;;;;;;18.20;63.80;;;13.11;100.00;95074.06;5014930;28;19955;-53
2023/05/21 05:57:54;;;;;;;;;;;18.40;63.80;;;13.20;100.00;95075.75;5015766;28;19996;-53
2023/05/21 06:00:20;;;;;;;;;;;18.50;63.50;;;13.35;100.00;95084.63;5015422;28;19913;-50
2023/05/21 06:02:46;;;;;;;;;;;18.70;63.30;;;13.55;100.00;95075.47;5014222;28;19909;-49
2023/05/21 06:05:12;;;;;;;;;;;18.90;63.20;;;13.66;100.00;95082.22;5015683;28;19963;-52
2023/05/21 06:07:40;;;;;;;;;;;19.00;62.90;;;13.84;100.00;95077.88;5014785;28;20360;-53
2023/05/21 06:10:06;;;;;;;;;;;19.30;62.90;;;13.97;100.00;95076.28;5014937;28;19955;-50
2023/05/21 06:12:32;;;;;;;;;;;19.50;62.70;;;14.17;100.00;95091.16;5015293;28;19909;-49
2023/05/21 06:14:59;;;;;;;;;;;19.60;62.50;;;14.39;100.00;95088.56;5005531;28;19912;-54
2023/05/21 06:17:24;;;;;;;;;;;19.80;62.40;;;14.59;100.00;95087.34;5015000;28;19958;-50
2023/05/21 06:19:50;;;;;;;;;;;20.00;62.30;;;14.79;100.00;95081.56;5014522;28;19916;-51
2023/05/21 06:22:16;;;;;;;;;;;20.20;62.10;;;14.95;100.00;95081.22;5007789;28;19952;-51
2023/05/21 06:24:42;;;;;;;;;;;20.40;62.10;;;15.13;100.00;95080.22;5014423;28;19909;-51
2023/05/21 06:27:07;;;;;;;;;;;20.60;61.90;;;15.17;100.00;95080.41;5014745;28;20011;-50
2023/05/21 06:29:33;;;;;;;;;;;20.80;61.60;;;15.28;100.00;95087.88;5014034;28;20352;-49
2023/05/21 06:31:59;;;;;;;;;;;21.00;61.30;;;15.41;98.74;95080.06;5012032;28;19909;-51
2023/05/21 06:34:25;;;;;;;;;;;21.20;61.80;;;15.49;97.44;95090.09;5017405;28;19913;-49
2023/05/21 06:36:50;;;;;;;;;;;21.40;60.70;;;15.51;96.55;95085.19;5020656;28;19912;-50
2023/05/21 06:39:16;;;;;;;;;;;21.60;60.50;;;15.81;96.33;95091.69;5017057;28;19909;-51
2023/05/21 06:41:42;;;;;;;;;;;21.70;60.30;;;16.08;94.41;95087.22;5014286;28;20357;-50
2023/05/21 06:44:08;;;;;;;;;;;21.90;60.10;;;16.25;91.97;95087.25;5013724;28;19916;-51
2023/05/21 06:46:35;;;;;;;;;;;22.10;59.80;;;16.45;91.42;95080.50;5014056;28;20362;-50
2023/05/21 06:49:01;;;;;;;;;;;22.30;59.80;;;16.73;89.85;95090.97;5013723;28;19940;-52
2023/05/21 06:51:27;;;;;;;;;;;22.60;59.60;;;17.02;88.17;95085.03;5013350;28;19996;-49
2023/05/21 06:53:52;;;;;;;;;;;22.80;59.50;;;17.19;85.56;95086.91;5014313;28;20678;-53
2023/05/21 06:56:18;;;;;;;;;;;23.00;59.20;;;17.45;84.28;95087.66;5013459;28;19909;-49
2023/05/21 06:58:44;;;;;;;;;;;23.30;59.70;;;17.66;81.52;95082.38;5014460;28;20287;-52
2023/05/21 07:01:13;;;;;;;;;;;23.50;58.80;;;17.89;80.60;95087.56;5012341;28;19920;-49
2023/05/21 07:03:38;;;;;;;;;;;23.70;58.50;;;18.02;78.49;95084.66;5014299;28;19915;-52
2023/05/21 07:06:05;;;;;;;;;;;23.80;58.30;;;18.22;77.93;95088.53;5013961;28;19913;-51
2023/05/21 07:08:30;;;;;;;;;;;23.90;58.10;;;18.31;76.54;95093.09;5013472;28;19932;-51
2023/05/21 07:10:56;;;;;;;;;;;24.10;57.90;;;18.46;76.43;95089.84;5013801;28;19948;-51
2023/05/21 07:13:22;;;;;;;;;;;24.20;57.70;;;18.56;75.46;95097.56;5013420;28;20015;-49
2023/05/21 07:15:48;;;;;;;;;;;24.20;58.00;;;18.62;74.21;95090.84;5013482;28;19916;-50
2023/05/21 07:18:14;;;;;;;;;;;24.30;57.20;;;18.58;73.64;95092.59;5014203;28;20394;-49
2023/05/21 07:20:40;;;;;;;;;;;24.40;57.00;;;18.64;73.94;95090.50;5024791;28;19921;-50
2023/05/21 07:23:05;;;;;;;;;;;24.40;56.80;;;18.74;74.19;95095.56;5018140;28;20011;-52
2023/05/21 07:25:31;;;;;;;;;;;24.40;56.60;;;18.90;73.90;95083.06;5019878;28;19916;-52
2023/05/21 07:27:57;;;;;;;;;;;24.50;56.50;;;18.90;72.61;95083.06;5021748;28;20020;-49
2023/05/21 07:30:22;;;;;;;;;;;24.60;56.40;;;19.09;72.71;95082.59;5023509;28;19913;-49
2023/05/21 07:32:48;;;;;;;;;;;24.70;56.20;;;18.99;72.25;95080.31;5019717;28;19932;-49
2023/05/21 07:35:16;;;;;;;;;;;24.70;56.00;;;18.82;72.51;95081.22;5020913;28;20008;-50
2023/05/21 07:37:42;;;;;;;;;;;24.80;55.80;;;19.00;72.53;95083.78;5020908;28;20379;-49
2023/05/21 07:40:08;;;;;;;;;;;25.00;55.60;;;19.29;71.71;95077.50;5020280;28;19955;-49
2023/05/21 07:42:34;;;;;;;;;;;25.20;55.40;;;19.68;71.12;95089.72;5021768;28;19924;-51
2023/05/21 07:45:01;;;;;;;;;;;25.30;55.30;;;19.99;68.94;95067.53;5018379;28;19920;-50
2023/05/21 07:47:26;;;;;;;;;;;25.50;55.10;;;20.32;67.28;95072.88;5019434;28;19913;-49
2023/05/21 07:49:52;;;;;;;;;;;25.90;55.20;;;20.58;65.77;95069.03;5017746;28;19975;-51
2023/05/21 07:52:18;;;;;;;;;;;26.30;54.90;;;20.88;65.30;95071.47;5021293;28;19913;-51
2023/05/21 07:54:43;;;;;;;;;;;26.70;54.60;;;21.31;63.97;95072.66;5019097;28;19970;-50
2023/05/21 07:57:09;;;;;;;;;;;27.20;54.30;;;21.65;62.02;95072.06;5018634;28;19920;-48
2023/05/21 07:59:35;;;;;;;;;;;27.60;53.90;;;21.74;60.52;95069.19;5013059;28;20398;-48
2023/05/21 08:02:01;;;;;;;;;;;28.00;53.60;;;21.87;59.97;95068.00;5012044;28;20268;-49
2023/05/21 08:04:26;;;;;;;;;;;28.40;53.00;;;22.39;58.42;95077.03;5007956;28;20370;-52
2023/05/21 08:06:52;;;;;;;;;;;28.80;52.60;;;22.74;56.76;95066.19;5007922;28;19956;-50
2023/05/21 08:09:18;;;;;;;;;;;29.20;52.20;;;23.11;54.25;95073.19;5017223;28;19913;-53
2023/05/21 08:11:45;;;;;;;;;;;29.50;51.60;;;23.31;53.79;95067.38;5011790;28;20299;-49
2023/05/21 08:14:11;;;;;;;;;;;29.80;50.90;;;23.42;53.61;95075.75;5017113;28;19917;-48
2023/05/21 08:16:37;;;;;;;;;;;30.00;50.60;;;23.70;53.56;95074.75;5006796;28;20394;-54
2023/05/21 08:19:03;;;;;;;;;;;30.20;50.30;;;23.74;52.18;95076.38;5010801;28;19917;-55
2023/05/21 08:21:29;;;;;;;;;;;30.40;49.80;;;23.93;52.27;95080.19;5011961;28;19913;-52
2023/05/21 08:23:55;;;;;;;;;;;30.60;49.50;;;23.90;52.63;95076.28;5011811;28;19909;-51
2023/05/21 08:28:51;;;;;;;;;;;31.00;48.90;;;24.49;50.60;95079.59;4984900;28;19922;-52
2023/05/21 08:31:20;;;;;;;;;;;31.20;48.60;;;24.79;51.26;95078.84;4989560;28;19916;-47
2023/05/21 08:33:51;;;;;;;;;;;31.50;48.30;;;25.11;49.69;95080.06;4989663;28;20364;-47
2023/05/21 08:36:17;;;;;;;;;;;31.70;48.00;;;25.35;48.80;95083.50;4975367;28;20854;-49
2023/05/21 08:38:43;;;;;;;;;;;32.00;47.90;;;25.63;48.58;95074.84;4989041;28;19971;-47
2023/05/21 08:41:12;;;;;;;;;;;32.30;47.60;;;25.99;48.51;95081.50;4980435;28;19922;-45
2023/05/21 08:43:39;;;;;;;;;;;32.60;47.30;;;25.97;48.18;95074.84;4984493;28;19960;-45
2023/05/21 08:46:07;;;;;;;;;;;32.80;47.00;;;26.40;47.25;95067.81;4989678;28;19920;-45
2023/05/21 08:48:35;;;;;;;;;;;33.00;46.50;;;26.13;47.09;95074.59;4972562;28;20115;-45
2023/05/21 08:51:01;;;;;;;;;;;33.20;46.30;;;26.43;46.45;95063.53;4981574;28;20012;-45
2023/05/21 08:53:27;;;;;;;;;;;33.40;46.20;;;26.68;46.02;95063.75;4985567;28;20015;-49
2023/05/21 08:55:55;;;;;;;;;;;33.50;45.80;;;26.12;46.53;95065.63;4982693;28;20329;-45
2023/05/21 08:58:22;;;;;;;;;;;33.50;45.20;;;26.32;46.93;95063.44;4984847;28;19913;-54
2023/05/21 09:00:48;;;;;;;;;;;33.50;45.10;;;26.11;47.39;95068.75;4978460;28;20415;-45
2023/05/21 09:03:17;;;;;;;;;;;33.50;44.90;;;25.71;48.77;95070.28;4978039;28;19974;-45
2023/05/21 09:05:44;;;;;;;;;;;33.50;44.80;;;26.02;46.43;95075.28;4982363;28;19910;-47
2023/05/21 09:08:15;;;;;;;;;;;33.40;44.70;;;26.21;47.15;95074.28;4983826;28;19917;-47
2023/05/21 09:10:51;;;;;;;;;;;33.30;44.60;;;26.45;46.04;95074.84;4982196;28;19921;-47
2023/05/21 09:13:19;;;;;;;;;;;33.40;44.70;;;26.20;46.75;95064.53;4984099;28;19914;-47
2023/05/21 09:15:46;;;;;;;;;;;33.40;44.40;;;26.36;45.97;95068.94;4987353;28;19909;-45
2023/05/21 09:18:13;;;;;;;;;;;33.50;44.70;;;26.46;45.62;95070.97;4976967;28;19913;-45
2023/05/21 09:20:39;;;;;;;;;;;33.50;43.80;;;26.69;45.48;95068.03;4979226;28;19925;-45
2023/05/21 09:23:15;;;;;;;;;;;33.50;43.90;;;26.83;45.18;95064.63;4985139;28;20428;-48
2023/05/21 09:25:46;;;;;;;;;;;33.60;43.90;;;26.79;45.46;95067.31;4984399;28;20343;-45
2023/05/21 09:28:15;;;;;;;;;;;33.50;43.70;;;26.91;44.87;95061.53;4990344;28;20410;-45
2023/05/21 09:30:45;;;;;;;;;;;33.50;43.60;;;26.94;44.70;95063.50;4989301;28;19914;-52
2023/05/21 09:33:11;;;;;;;;;;;33.60;43.60;;;27.08;46.66;95067.47;4990482;28;20590;-45
2023/05/21 09:35:45;;;;;;;;;;;33.70;43.50;;;27.54;43.42;95072.38;4977236;28;20339;-47
2023/05/21 09:38:11;;;;;;;;;;;34.00;43.50;;;27.63;43.17;95078.25;4982670;28;20040;-44
2023/05/21 09:40:46;;;;;;;;;;;34.20;43.20;;;27.58;43.27;95071.22;4978260;28;20016;-45
2023/05/21 09:43:15;;;;;;;;;;;34.40;42.90;;;27.86;43.45;95077.94;4982717;28;19909;-45
2023/05/21 09:45:51;;;;;;;;;;;34.60;42.70;;;28.19;43.63;95070.56;4982047;28;19921;-45
2023/05/21 09:48:35;;;;;;;;;;;34.80;42.40;;;28.42;42.62;95079.19;4984579;28;19909;-46
2023/05/21 09:51:16;;;;;;;;;;;35.00;42.30;;;28.29;42.51;95076.03;4978819;28;19916;-45
2023/05/21 09:53:53;;;;;;;;;;;35.30;42.00;;;28.49;41.93;95079.22;4984830;28;20403;-45
2023/05/21 09:56:30;;;;;;;;;;;35.40;41.50;;;27.82;42.75;95077.16;4996362;28;19916;-45
2023/05/21 09:59:03;;;;;;;;;;;35.60;41.10;;;28.10;42.53;95068.97;4971504;28;19914;-45
2023/05/21 10:01:32;;;;;;;;;;;35.70;40.80;;;28.50;41.68;95078.03;4972350;28;19918;-45
2023/05/21 10:04:01;;;;;;;;;;;35.70;40.60;;;28.59;40.65;95072.16;4991278;28;19941;-45
2023/05/21 10:06:30;;;;;;;;;;;35.80;40.50;;;29.03;39.99;95079.94;4991478;28;20261;-45
2023/05/21 10:09:00;;;;;;;;;;;35.90;41.10;;;28.91;39.26;95076.81;4974297;28;19910;-46
2023/05/21 10:11:30;;;;;;;;;;;36.00;40.50;;;28.91;39.73;95069.34;4988294;28;20008;-45
2023/05/21 10:14:04;;;;;;;;;;;36.00;40.20;;;29.08;39.05;95070.50;4985259;28;19909;-45
2023/05/21 10:16:33;;;;;;;;;;;35.90;40.10;;;29.10;38.62;95073.63;4977655;28;19924;-45
2023/05/21 10:18:59;;;;;;;;;;;36.00;39.90;;;28.73;37.64;95071.34;4984208;28;19917;-48
2023/05/21 10:21:26;;;;;;;;;;;36.00;39.70;;;28.73;39.00;95068.59;4988460;28;19913;-45
2023/05/21 10:23:56;;;;;;;;;;;36.00;39.60;;;28.96;38.40;95066.22;4988452;28;19909;-48
2023/05/21 10:26:23;;;;;;;;;;;36.00;39.60;;;28.95;38.78;95067.38;4980786;28;19977;-49
2023/05/21 10:28:53;;;;;;;;;;;36.00;39.40;;;28.64;40.22;95068.22;4986660;28;19923;-46
2023/05/21 10:31:20;;;;;;;;;;;36.10;39.30;;;28.78;38.91;95065.47;4990803;28;19910;-46
2023/05/21 10:33:46;;;;;;;;;;;36.10;39.10;;;28.83;39.43;95051.34;4981064;28;20004;-45
2023/05/21 10:36:17;;;;;;;;;;;36.30;38.90;;;28.85;41.26;95057.22;4986138;28;19913;-46
2023/05/21 10:38:43;;;;;;;;;;;36.30;38.70;;;29.28;39.26;95057.91;4987635;28;19914;-45
2023/05/21 10:41:12;;;;;;;;;;;36.40;38.60;;;29.53;37.65;95065.25;4978062;28;19925;-48
2023/05/21 10:44:39;;;;;;;;;;;36.50;38.50;;;29.80;37.34;95062.75;4985710;28;19913;-45
2023/05/21 10:47:39;;;;;;;;;;;36.70;38.40;;;30.01;38.18;95056.38;4938488;28;19910;-47
2023/05/21 10:50:43;;;;;;;;;;;36.90;38.20;;;29.95;37.56;95058.75;4978805;28;19921;-46
2023/05/21 10:53:44;;;;;;;;;;;37.10;37.90;;;29.85;37.00;95061.56;4979085;28;20018;-45
2023/05/21 10:56:30;;;;;;;;;;;37.10;37.80;;;29.69;37.17;95054.59;4991089;28;19917;-49
2023/05/21 10:59:20;;;;;;;;;;;37.10;37.70;;;29.56;37.53;95052.69;4980875;28;19910;-46
2023/05/21 11:01:51;;;;;;;;;;;37.00;37.50;;;29.13;38.36;95061.09;4982242;28;19967;-47
2023/05/21 11:04:25;;;;;;;;;;;36.90;37.30;;;29.19;37.59;95065.00;4980305;28;19918;-47
2023/05/21 11:06:50;;;;;;;;;;;36.80;37.20;;;28.89;38.38;95054.47;4983300;28;19909;-54
2023/05/21 11:09:16;;;;;;;;;;;36.80;37.10;;;28.76;40.25;95052.16;4980569;28;19971;-47
2023/05/21 11:11:47;;;;;;;;;;;36.80;37.00;;;28.11;39.86;95053.34;4983710;28;19993;-50
2023/05/21 11:14:34;;;;;;;;;;;36.60;36.80;;;28.51;38.54;95049.44;4998141;28;19931;-46
2023/05/21 11:17:34;;;;;;;;;;;36.60;36.90;;;27.55;39.73;95047.38;4979678;28;19909;-45
2023/05/21 11:20:07;;;;;;;;;;;36.60;36.80;;;27.71;41.01;95046.25;4989595;28;19945;-46